Time;durP1;ratioP1;P1;durP2;ratioP2;P2;SDS_P1;SDS_P2;PMS_P1;PMS_P2;Temp;Humidity;BMP_temperature;BMP_pressure;BME280_temperature;BME280_humidity;BME280_pressure;Samples;Min_cycle;Max_cycle;Signal;HPM_P1;HPM_P2
2023/08/31 00:00:56;;;;;;;4.20;1.67;;;18.30;67.50;;;;;;5054827;28;20462;-63
2023/08/31 00:03:23;;;;;;;4.40;1.48;;;18.50;67.60;;;;;;5054700;28;20025;-63
2023/08/31 00:05:51;;;;;;;5.57;1.85;;;18.80;67.40;;;;;;5054784;28;20032;-63
2023/08/31 00:08:22;;;;;;;3.00;1.30;;;19.10;66.00;;;;;;5054352;28;20052;-62
2023/08/31 00:11:02;;;;;;;3.38;1.38;;;19.30;64.60;;;;;;5054717;28;20029;-63
2023/08/31 00:13:30;;;;;;;4.03;1.40;;;20.00;63.60;;;;;;5038447;28;20455;-62
2023/08/31 00:15:59;;;;;;;2.47;1.70;;;20.60;62.30;;;;;;5055564;28;20465;-63
2023/08/31 00:18:27;;;;;;;4.90;1.50;;;21.60;60.70;;;;;;5054577;28;20017;-62
2023/08/31 00:20:55;;;;;;;2.55;1.10;;;21.40;59.60;;;;;;5054394;28;20045;-63
2023/08/31 00:23:23;;;;;;;4.65;1.20;;;20.80;61.00;;;;;;5054465;28;20423;-63
2023/08/31 00:25:52;;;;;;;4.15;1.30;;;20.10;62.60;;;;;;5055363;28;20515;-63
2023/08/31 00:28:21;;;;;;;4.43;1.50;;;20.00;62.50;;;;;;5054331;28;20036;-63
2023/08/31 00:30:48;;;;;;;5.00;1.58;;;20.10;62.90;;;;;;5055360;28;20435;-63
2023/08/31 00:33:17;;;;;;;4.00;1.75;;;20.30;63.00;;;;;;5055170;28;20045;-63
2023/08/31 00:35:46;;;;;;;5.32;1.40;;;20.40;62.00;;;;;;5054344;28;20044;-63
2023/08/31 00:38:14;;;;;;;2.53;1.20;;;20.50;60.40;;;;;;5054226;28;20032;-62
2023/08/31 00:40:45;;;;;;;5.43;1.27;;;20.40;63.10;;;;;;5054226;28;20107;-63
2023/08/31 00:43:20;;;;;;;4.57;1.50;;;20.70;61.20;;;;;;5054262;28;20017;-63
2023/08/31 00:45:57;;;;;;;3.97;1.20;;;20.60;61.70;;;;;;5054193;28;20025;-63
2023/08/31 00:48:26;;;;;;;6.85;1.23;;;20.70;59.70;;;;;;5054136;28;20017;-62
2023/08/31 00:50:54;;;;;;;3.88;1.20;;;21.30;60.70;;;;;;5054168;28;20139;-62
2023/08/31 00:53:22;;;;;;;4.03;1.23;;;21.10;60.30;;;;;;5054162;28;20374;-63
2023/08/31 00:55:50;;;;;;;4.40;1.45;;;20.60;61.50;;;;;;5055086;28;20100;-63
2023/08/31 00:58:18;;;;;;;4.60;1.40;;;20.20;62.30;;;;;;5054091;28;20110;-63
2023/08/31 01:01:09;;;;;;;3.00;1.35;;;21.00;59.90;;;;;;5054122;28;20074;-63
2023/08/31 01:04:09;;;;;;;5.23;1.37;;;21.20;60.10;;;;;;5054139;28;20098;-62
2023/08/31 01:07:02;;;;;;;3.03;1.30;;;21.80;59.30;;;;;;5054002;28;20035;-62
2023/08/31 01:09:48;;;;;;;5.82;1.45;;;21.70;58.50;;;;;;5037667;28;20082;-62
2023/08/31 01:12:51;;;;;;;3.88;1.55;;;22.10;56.30;;;;;;5054009;28;20104;-62
2023/08/31 01:15:20;;;;;;;3.15;1.20;;;22.10;56.60;;;;;;5052989;28;20060;-62
2023/08/31 01:17:54;;;;;;;3.75;1.85;;;22.10;56.50;;;;;;5053816;28;20398;-63
2023/08/31 01:20:39;;;;;;;3.70;1.50;;;22.30;55.50;;;;;;5055873;28;20055;-63
2023/08/31 01:23:16;;;;;;;4.43;1.20;;;22.10;54.90;;;;;;5058959;28;20033;-63
2023/08/31 01:25:44;;;;;;;4.18;1.15;;;21.40;56.00;;;;;;5057891;28;20108;-63
2023/08/31 01:28:12;;;;;;;3.95;1.20;;;21.80;54.60;;;;;;5058724;28;20099;-65
2023/08/31 01:30:40;;;;;;;3.58;1.10;;;21.60;56.10;;;;;;5058706;28;20100;-64
2023/08/31 01:33:08;;;;;;;5.65;1.20;;;21.40;57.40;;;;;;5058756;28;20104;-62
2023/08/31 01:35:45;;;;;;;3.55;1.25;;;21.50;56.80;;;;;;5057650;28;20032;-63
2023/08/31 01:38:18;;;;;;;3.92;1.17;;;21.80;55.40;;;;;;5057560;28;20029;-62
2023/08/31 01:41:05;;;;;;;3.80;1.25;;;21.40;56.50;;;;;;5041518;28;20095;-64
2023/08/31 01:43:34;;;;;;;5.55;1.27;;;20.80;57.90;;;;;;5041094;28;20021;-64
2023/08/31 01:46:02;;;;;;;3.33;1.30;;;21.00;57.90;;;;;;5058448;28;20422;-64
2023/08/31 01:48:30;;;;;;;4.35;1.20;;;22.50;55.50;;;;;;5057465;28;20032;-64
2023/08/31 01:51:01;;;;;;;2.63;0.90;;;22.70;53.40;;;;;;5057502;28;20053;-64
2023/08/31 01:53:28;;;;;;;2.30;0.70;;;23.10;54.30;;;;;;5057430;28;20029;-64
2023/08/31 01:55:56;;;;;;;3.80;1.10;;;23.20;53.30;;;;;;5058319;28;20027;-63
2023/08/31 01:58:23;;;;;;;4.57;1.20;;;22.70;52.80;;;;;;5057293;28;20040;-64
2023/08/31 02:00:51;;;;;;;5.50;1.17;;;21.70;56.20;;;;;;5058261;28;20031;-62
2023/08/31 02:03:18;;;;;;;3.33;1.38;;;21.40;56.80;;;;;;5057226;28;20520;-63
2023/08/31 02:05:46;;;;;;;4.75;1.10;;;21.10;57.70;;;;;;5057179;28;20065;-64
2023/08/31 02:08:17;;;;;;;3.80;1.10;;;20.80;58.10;;;;;;5056753;28;20029;-64
2023/08/31 02:10:48;;;;;;;2.92;1.02;;;20.50;58.80;;;;;;5057015;28;20455;-64
2023/08/31 02:13:16;;;;;;;5.07;1.13;;;20.40;57.50;;;;;;5057844;28;20063;-63
2023/08/31 02:15:44;;;;;;;4.32;1.08;;;20.50;57.70;;;;;;5057103;28;20036;-64
2023/08/31 02:18:12;;;;;;;6.35;1.08;;;20.40;57.50;;;;;;5056873;28;20074;-64
2023/08/31 02:20:39;;;;;;;6.13;1.40;;;21.80;55.50;;;;;;5056780;28;20132;-64
2023/08/31 02:23:09;;;;;;;8.48;1.75;;;21.80;55.20;;;;;;5057820;28;20019;-65
2023/08/31 02:25:36;;;;;;;5.75;1.42;;;22.20;53.50;;;;;;5056774;28;20036;-64
2023/08/31 02:28:05;;;;;;;5.90;1.30;;;22.60;52.70;;;;;;5056644;28;20082;-64
2023/08/31 02:30:32;;;;;;;3.47;1.10;;;22.00;53.70;;;;;;5056437;28;20463;-64
2023/08/31 02:32:59;;;;;;;4.43;1.30;;;22.30;54.20;;;;;;5056590;28;20028;-65
2023/08/31 02:35:27;;;;;;;8.75;2.15;;;22.20;53.90;;;;;;5056475;28;20444;-64
2023/08/31 02:37:54;;;;;;;6.60;2.10;;;22.10;53.50;;;;;;5057397;28;20367;-64
2023/08/31 02:40:22;;;;;;;7.03;1.25;;;22.10;54.00;;;;;;5056470;28;20100;-63
2023/08/31 02:42:52;;;;;;;9.00;1.40;;;22.60;51.90;;;;;;5056479;28;20066;-64
2023/08/31 02:45:20;;;;;;;5.82;1.58;;;22.10;53.40;;;;;;5056382;28;20056;-64
2023/08/31 02:47:49;;;;;;;5.70;1.27;;;22.90;53.50;;;;;;5056363;28;20029;-64
2023/08/31 02:50:17;;;;;;;5.53;1.30;;;23.90;51.50;;;;;;5056298;28;20033;-63
2023/08/31 02:52:44;;;;;;;5.70;1.10;;;25.00;48.60;;;;;;5056153;28;20036;-64
2023/08/31 02:55:12;;;;;;;2.65;1.05;;;24.90;48.50;;;;;;5056178;28;20397;-64
2023/08/31 02:57:39;;;;;;;5.88;1.35;;;24.00;47.60;;;;;;5056217;28;20474;-64
2023/08/31 03:00:12;;;;;;;4.22;1.08;;;23.60;50.40;;;;;;5056064;28;20455;-64
2023/08/31 03:02:40;;;;;;;4.47;1.10;;;22.60;50.70;;;;;;5056093;28;20024;-67
2023/08/31 03:05:08;;;;;;;3.05;1.08;;;23.10;49.80;;;;;;5056120;28;20116;-66
2023/08/31 03:07:36;;;;;;;3.33;1.00;;;23.10;50.80;;;;;;5055864;28;20108;-64
2023/08/31 03:10:04;;;;;;;3.70;1.20;;;24.10;46.30;;;;;;5055500;28;20444;-64
2023/08/31 03:12:31;;;;;;;5.20;1.55;;;24.10;47.80;;;;;;5055410;28;20123;-63
2023/08/31 03:14:59;;;;;;;6.22;1.40;;;24.90;46.50;;;;;;5056600;28;20355;-64
2023/08/31 03:17:27;;;;;;;8.00;1.92;;;24.80;47.20;;;;;;5055816;28;20397;-64
2023/08/31 03:19:54;;;;;;;3.67;1.20;;;24.50;49.00;;;;;;5055319;28;20049;-65
2023/08/31 03:22:22;;;;;;;4.10;1.30;;;24.40;46.80;;;;;;5055493;28;20036;-66
2023/08/31 03:24:49;;;;;;;3.92;1.13;;;23.70;48.30;;;;;;5056465;28;20075;-66
2023/08/31 03:27:17;;;;;;;3.83;1.40;;;23.30;49.30;;;;;;5055445;28;20033;-65
2023/08/31 03:29:44;;;;;;;6.75;1.50;;;22.60;51.40;;;;;;5055336;28;20032;-65
2023/08/31 03:32:12;;;;;;;5.28;1.10;;;22.80;51.80;;;;;;5055073;28;20040;-65
2023/08/31 03:34:39;;;;;;;3.38;1.00;;;22.80;50.70;;;;;;5056322;28;20021;-64
2023/08/31 03:37:07;;;;;;;3.35;1.38;;;22.30;51.80;;;;;;5056292;28;20013;-65
2023/08/31 03:39:34;;;;;;;4.20;1.13;;;21.90;53.00;;;;;;5054231;28;20134;-66
2023/08/31 03:42:02;;;;;;;3.33;0.90;;;21.80;52.70;;;;;;5053239;28;20458;-65
2023/08/31 03:44:30;;;;;;;2.92;1.30;;;21.60;53.60;;;;;;5054000;28;20056;-65
2023/08/31 03:46:57;;;;;;;5.95;1.77;;;21.40;53.90;;;;;;5053840;28;20079;-65
2023/08/31 03:49:25;;;;;;;5.15;1.70;;;21.70;53.60;;;;;;5054948;28;20439;-65
2023/08/31 03:51:53;;;;;;;6.47;1.42;;;22.90;53.10;;;;;;5053939;28;20083;-66
2023/08/31 03:54:21;;;;;;;5.82;1.42;;;23.60;53.90;;;;;;5053678;28;20025;-65
2023/08/31 03:56:49;;;;;;;4.95;0.95;;;24.00;52.10;;;;;;5053751;28;20348;-64
2023/08/31 03:59:18;;;;;;;4.13;1.00;;;23.20;52.10;;;;;;5054715;28;20029;-65
2023/08/31 04:01:46;;;;;;;5.60;1.20;;;22.50;54.10;;;;;;5053616;28;20479;-65
2023/08/31 04:04:14;;;;;;;5.57;1.38;;;22.10;55.70;;;;;;5053619;28;20057;-64
2023/08/31 04:06:42;;;;;;;5.20;1.42;;;21.30;58.20;;;;;;5053512;28;20124;-63
2023/08/31 04:09:09;;;;;;;6.43;1.10;;;21.50;58.00;;;;;;5053440;28;20025;-64
2023/08/31 04:11:37;;;;;;;7.20;1.60;;;21.70;58.60;;;;;;5053626;28;20028;-65
2023/08/31 04:14:04;;;;;;;6.70;1.45;;;22.20;56.80;;;;;;5053328;28;20021;-65
2023/08/31 04:16:32;;;;;;;7.03;1.63;;;21.90;56.90;;;;;;5053394;28;20031;-65
2023/08/31 04:19:00;;;;;;;6.82;1.80;;;21.20;58.50;;;;;;5054136;28;20032;-64
2023/08/31 04:21:27;;;;;;;6.88;1.55;;;20.70;59.20;;;;;;5054077;28;20045;-64
2023/08/31 04:23:55;;;;;;;6.40;1.30;;;21.40;58.70;;;;;;5053221;28;20029;-65
2023/08/31 04:26:24;;;;;;;5.70;0.98;;;22.00;57.30;;;;;;5053084;28;20032;-65
2023/08/31 04:28:51;;;;;;;6.13;1.30;;;21.80;57.50;;;;;;5053132;28;20087;-63
2023/08/31 04:31:19;;;;;;;4.18;1.10;;;22.00;57.60;;;;;;5053121;28;20047;-65
2023/08/31 04:33:48;;;;;;;4.95;1.20;;;22.60;56.10;;;;;;5053158;28;20048;-64
2023/08/31 04:36:15;;;;;;;5.90;1.30;;;22.40;56.60;;;;;;5053061;28;20032;-63
2023/08/31 04:38:43;;;;;;;6.20;1.42;;;22.20;57.90;;;;;;5052840;28;20044;-63
2023/08/31 04:41:10;;;;;;;5.93;1.70;;;21.90;57.30;;;;;;5053070;28;20025;-64
2023/08/31 04:43:38;;;;;;;8.55;1.90;;;22.00;56.30;;;;;;5052791;28;20021;-64
2023/08/31 04:46:06;;;;;;;4.05;1.30;;;22.20;55.90;;;;;;5052650;28;20017;-65
2023/08/31 04:48:34;;;;;;;4.57;1.42;;;22.00;56.70;;;;;;5052580;28;20052;-66
2023/08/31 04:51:03;;;;;;;5.55;1.25;;;21.70;56.50;;;;;;5052777;28;20029;-65
2023/08/31 04:53:32;;;;;;;8.13;2.10;;;21.50;57.00;;;;;;5052271;28;20104;-65
2023/08/31 04:55:59;;;;;;;5.10;1.27;;;21.10;56.90;;;;;;5052477;28;20160;-64
2023/08/31 04:58:27;;;;;;;8.88;1.20;;;21.10;57.90;;;;;;5052826;28;20040;-65
2023/08/31 05:00:54;;;;;;;3.08;1.10;;;21.10;58.50;;;;;;5053915;28;20021;-64
2023/08/31 05:03:22;;;;;;;7.20;1.77;;;20.80;58.00;;;;;;5052761;28;20056;-65
2023/08/31 05:05:49;;;;;;;6.38;1.40;;;20.80;58.90;;;;;;5053787;28;20744;-65
2023/08/31 05:08:17;;;;;;;5.72;1.38;;;20.80;58.70;;;;;;5053753;28;20391;-65
2023/08/31 05:10:46;;;;;;;4.68;1.00;;;20.60;58.40;;;;;;5052314;28;20025;-65
2023/08/31 05:13:14;;;;;;;5.18;1.48;;;20.70;58.00;;;;;;5051845;28;20032;-64
2023/08/31 05:15:41;;;;;;;5.45;1.40;;;21.20;58.20;;;;;;5053464;28;20513;-64
2023/08/31 05:18:09;;;;;;;8.27;1.40;;;21.60;56.30;;;;;;5052176;28;20062;-64
2023/08/31 05:20:37;;;;;;;4.57;1.33;;;21.90;55.10;;;;;;5052337;28;20090;-64
2023/08/31 05:23:04;;;;;;;4.90;1.45;;;22.10;55.20;;;;;;5053444;28;20359;-64
2023/08/31 05:25:32;;;;;;;7.30;1.48;;;22.70;53.00;;;;;;5053580;28;20081;-65
2023/08/31 05:28:00;;;;;;;5.53;1.35;;;23.30;51.90;;;;;;5053429;28;20018;-65
2023/08/31 05:30:27;;;;;;;6.68;1.90;;;24.10;50.90;;;;;;5052320;28;20025;-63
2023/08/31 05:32:55;;;;;;;6.20;1.40;;;25.50;48.50;;;;;;5052533;28;20049;-64
2023/08/31 05:35:23;;;;;;;3.55;1.20;;;25.70;46.50;;;;;;5053367;28;20032;-65
2023/08/31 05:37:50;;;;;;;5.45;1.30;;;25.50;46.70;;;;;;5052301;28;20075;-64
2023/08/31 05:40:18;;;;;;;6.75;1.27;;;26.20;45.60;;;;;;5053430;28;20101;-64
2023/08/31 05:42:45;;;;;;;4.78;1.17;;;26.10;46.00;;;;;;5053409;28;20025;-64
2023/08/31 05:45:13;;;;;;;5.13;1.17;;;26.70;44.10;;;;;;5052397;28;20033;-63
2023/08/31 05:47:42;;;;;;;5.30;1.35;;;27.70;42.60;;;;;;5053504;28;20025;-64
2023/08/31 05:50:10;;;;;;;4.38;1.23;;;27.50;42.70;;;;;;5053352;28;20339;-64
2023/08/31 05:52:37;;;;;;;5.07;1.10;;;26.50;44.40;;;;;;5053327;28;20138;-64
2023/08/31 05:55:06;;;;;;;6.07;1.80;;;27.30;43.30;;;;;;5052154;28;20033;-64
2023/08/31 05:57:34;;;;;;;8.48;1.80;;;27.40;43.30;;;;;;5052211;28;20021;-64
2023/08/31 06:00:02;;;;;;;6.35;1.30;;;26.80;44.20;;;;;;5052021;28;20478;-64
2023/08/31 06:02:29;;;;;;;5.00;1.40;;;26.40;44.80;;;;;;5052208;28;20371;-64
2023/08/31 06:04:57;;;;;;;4.80;1.23;;;26.60;44.90;;;;;;5051780;28;20097;-64
2023/08/31 06:07:24;;;;;;;4.93;1.83;;;27.80;42.70;;;;;;5056943;28;20143;-63
2023/08/31 06:09:52;;;;;;;8.85;1.65;;;27.50;43.30;;;;;;5055575;28;20386;-63
2023/08/31 06:12:19;;;;;;;5.25;1.60;;;27.10;43.40;;;;;;5056697;28;20037;-64
2023/08/31 06:14:47;;;;;;;6.68;1.40;;;27.50;43.30;;;;;;5055411;28;20029;-64
2023/08/31 06:17:15;;;;;;;8.65;1.70;;;27.80;42.50;;;;;;5055497;28;20024;-64
2023/08/31 06:19:43;;;;;;;8.07;1.40;;;27.60;43.90;;;;;;5056285;28;20035;-64
2023/08/31 06:22:10;;;;;;;5.78;1.42;;;27.50;43.70;;;;;;5055469;28;20052;-63
2023/08/31 06:24:38;;;;;;;6.47;1.80;;;27.10;44.60;;;;;;5055500;28;20448;-64
2023/08/31 06:27:06;;;;;;;8.32;1.52;;;26.40;45.60;;;;;;5055377;28;20097;-63
2023/08/31 06:29:34;;;;;;;6.18;1.80;;;26.40;46.00;;;;;;5055107;28;20059;-63
2023/08/31 06:32:01;;;;;;;5.82;1.33;;;25.80;46.90;;;;;;5055353;28;20360;-64
2023/08/31 06:34:30;;;;;;;8.20;1.30;;;23.10;52.00;;;;;;5055237;28;20124;-65
2023/08/31 06:36:58;;;;;;;9.90;1.83;;;22.60;53.90;;;;;;5055325;28;20025;-65
2023/08/31 06:39:26;;;;;;;6.30;1.67;;;23.10;53.30;;;;;;5056147;28;20409;-65
2023/08/31 06:41:53;;;;;;;6.38;2.30;;;22.10;55.30;;;;;;5055218;28;20049;-63
2023/08/31 06:44:21;;;;;;;9.40;2.00;;;21.60;56.60;;;;;;5056213;28;20497;-65
2023/08/31 06:46:48;;;;;;;8.93;1.95;;;20.60;59.60;;;;;;5054947;28;20121;-64
2023/08/31 06:49:16;;;;;;;7.10;1.38;;;19.90;62.20;;;;;;5055885;28;20420;-65
2023/08/31 06:51:44;;;;;;;7.90;1.60;;;19.40;63.40;;;;;;5054901;28;20032;-65
2023/08/31 06:54:14;;;;;;;7.45;1.55;;;19.10;64.20;;;;;;5055728;28;20447;-64
2023/08/31 06:56:42;;;;;;;5.68;1.60;;;18.90;64.80;;;;;;5054761;28;20362;-64
2023/08/31 06:59:11;;;;;;;8.43;1.90;;;18.80;65.60;;;;;;5054712;28;20017;-64
2023/08/31 07:01:39;;;;;;;6.70;1.67;;;18.60;66.40;;;;;;5056046;28;20021;-64
2023/08/31 07:04:07;;;;;;;7.90;2.10;;;18.60;66.20;;;;;;5055755;28;20159;-65
2023/08/31 07:06:36;;;;;;;7.40;1.98;;;18.40;66.70;;;;;;5054821;28;20087;-64
2023/08/31 07:09:06;;;;;;;9.43;1.95;;;18.40;67.00;;;;;;5054498;28;20033;-65
2023/08/31 07:11:35;;;;;;;9.52;3.05;;;18.40;66.80;;;;;;5055646;28;20025;-65
2023/08/31 07:14:04;;;;;;;10.75;1.90;;;18.30;67.30;;;;;;5054369;28;20033;-65
2023/08/31 07:16:32;;;;;;;8.13;2.10;;;18.20;67.20;;;;;;5054152;28;20097;-64
2023/08/31 07:18:59;;;;;;;9.68;2.38;;;18.20;67.30;;;;;;5054500;28;20013;-64
2023/08/31 07:21:27;;;;;;;8.80;1.60;;;18.20;67.90;;;;;;5054163;28;20406;-63
2023/08/31 07:23:55;;;;;;;8.57;2.20;;;18.10;67.70;;;;;;5054331;28;20079;-65
2023/08/31 07:26:23;;;;;;;8.35;2.00;;;18.10;68.00;;;;;;5054364;28;20390;-64
2023/08/31 07:28:50;;;;;;;10.82;2.90;;;18.10;68.10;;;;;;5055309;28;20021;-64
2023/08/31 07:31:18;;;;;;;13.32;3.03;;;18.00;68.20;;;;;;5054247;28;20448;-64
2023/08/31 07:33:46;;;;;;;7.47;1.88;;;18.00;68.40;;;;;;5053916;28;20470;-64
2023/08/31 07:36:15;;;;;;;8.15;1.92;;;17.90;68.50;;;;;;5054070;28;20324;-64
2023/08/31 07:38:43;;;;;;;9.98;2.53;;;17.90;69.10;;;;;;5054166;28;20021;-64
2023/08/31 07:41:10;;;;;;;8.57;2.33;;;17.70;69.20;;;;;;5055196;28;20060;-64
2023/08/31 07:43:38;;;;;;;7.20;2.35;;;17.70;69.30;;;;;;5054100;28;20025;-64
2023/08/31 07:46:05;;;;;;;9.65;1.95;;;17.60;69.60;;;;;;5054952;28;20074;-64
2023/08/31 07:48:33;;;;;;;7.75;1.65;;;17.60;70.00;;;;;;5053789;28;20032;-64
2023/08/31 07:51:00;;;;;;;9.57;2.80;;;17.60;70.40;;;;;;5053727;28;20071;-61
2023/08/31 07:53:28;;;;;;;5.03;1.42;;;17.30;71.20;;;;;;5053628;28;20301;-62
2023/08/31 07:55:56;;;;;;;8.15;2.40;;;17.20;72.20;;;;;;5053722;28;20111;-64
2023/08/31 07:58:25;;;;;;;6.05;1.60;;;17.00;72.80;;;;;;5053513;28;20021;-64
2023/08/31 08:00:57;;;;;;;6.32;1.50;;;17.00;72.90;;;;;;5053507;28;20029;-64
2023/08/31 08:03:25;;;;;;;7.03;1.50;;;17.00;73.20;;;;;;5054692;28;20021;-64
2023/08/31 08:05:53;;;;;;;8.50;1.73;;;16.90;73.40;;;;;;5054287;28;20017;-65
2023/08/31 08:08:20;;;;;;;7.60;1.90;;;16.80;73.60;;;;;;5053275;28;20051;-64
2023/08/31 08:10:52;;;;;;;5.95;1.88;;;16.70;73.70;;;;;;5053622;28;20112;-64
2023/08/31 08:13:19;;;;;;;9.55;1.52;;;16.70;73.90;;;;;;5053363;28;20020;-63
2023/08/31 08:15:47;;;;;;;4.40;1.35;;;16.60;74.20;;;;;;5054348;28;20071;-63
2023/08/31 08:18:15;;;;;;;7.70;1.58;;;16.60;74.40;;;;;;5053037;28;20032;-64
2023/08/31 08:20:43;;;;;;;7.20;1.45;;;16.70;74.20;;;;;;5053080;28;20127;-65
2023/08/31 08:23:10;;;;;;;6.15;1.52;;;16.60;74.40;;;;;;5054431;28;20399;-65
2023/08/31 08:25:38;;;;;;;8.63;1.75;;;16.50;74.50;;;;;;5053382;28;20025;-64
2023/08/31 08:28:06;;;;;;;8.05;1.70;;;16.50;74.60;;;;;;5052878;28;20203;-63
2023/08/31 08:30:33;;;;;;;5.50;1.58;;;16.40;74.80;;;;;;5053175;28;20170;-63
2023/08/31 08:33:01;;;;;;;8.27;1.58;;;16.40;74.80;;;;;;5052563;28;20025;-64
2023/08/31 08:35:28;;;;;;;4.85;1.52;;;16.40;74.90;;;;;;5053767;28;20037;-64
2023/08/31 08:37:56;;;;;;;5.80;1.88;;;16.40;75.10;;;;;;5054337;28;20017;-65
2023/08/31 08:40:23;;;;;;;10.45;1.60;;;16.30;75.20;;;;;;5053064;28;20043;-65
2023/08/31 08:42:54;;;;;;;13.77;3.08;;;16.30;75.50;;;;;;5053039;28;20025;-64
2023/08/31 08:45:26;;;;;;;13.00;3.47;;;16.20;75.60;;;;;;5054089;28;20104;-64
2023/08/31 08:47:54;;;;;;;12.50;3.50;;;16.20;75.80;;;;;;5052842;28;20025;-64
2023/08/31 08:50:23;;;;;;;11.85;3.42;;;16.10;76.00;;;;;;5052430;28;20075;-64
2023/08/31 08:52:51;;;;;;;12.82;3.15;;;16.20;76.20;;;;;;5054130;28;20048;-63
2023/08/31 08:55:22;;;;;;;12.73;3.50;;;16.10;76.30;;;;;;5052743;28;20025;-65
2023/08/31 08:57:49;;;;;;;11.45;3.75;;;16.10;76.10;;;;;;5052857;28;20116;-65
2023/08/31 09:00:17;;;;;;;10.20;4.47;;;16.10;76.30;;;;;;5052691;28;20032;-64
2023/08/31 09:02:45;;;;;;;9.07;3.20;;;16.00;76.50;;;;;;5052755;28;20044;-65
2023/08/31 09:05:13;;;;;;;10.75;3.25;;;15.80;76.60;;;;;;5052773;28;20033;-64
2023/08/31 09:08:04;;;;;;;10.32;3.30;;;15.80;76.90;;;;;;5052762;28;20036;-64
2023/08/31 09:10:40;;;;;;;11.30;3.05;;;15.90;76.90;;;;;;5052841;28;20116;-64
2023/08/31 09:13:11;;;;;;;8.80;2.35;;;15.80;76.80;;;;;;5052736;28;20443;-65
2023/08/31 09:15:42;;;;;;;11.75;3.92;;;15.80;77.10;;;;;;5052784;28;20029;-65
2023/08/31 09:18:28;;;;;;;8.23;3.08;;;15.50;78.30;;;;;;5052663;28;20071;-64
2023/08/31 09:20:57;;;;;;;8.40;3.28;;;15.60;78.10;;;;;;5037760;28;20147;-63
2023/08/31 09:23:25;;;;;;;8.88;2.80;;;15.70;78.10;;;;;;5053632;28;20017;-64
2023/08/31 09:25:56;;;;;;;5.80;2.70;;;15.70;78.00;;;;;;5053575;28;20043;-63
2023/08/31 09:28:29;;;;;;;8.68;2.85;;;15.50;79.50;;;;;;5036257;28;20039;-63
2023/08/31 09:31:07;;;;;;;;;;;15.50;79.90;;;;;;5053123;28;20083;-64
2023/08/31 09:33:37;;;;;;;7.90;2.40;;;15.60;79.30;;;;;;5053336;28;19913;-65
2023/08/31 09:36:07;;;;;;;9.57;2.78;;;15.60;78.80;;;;;;5052403;28;20039;-66
2023/08/31 09:38:43;;;;;;;13.90;2.92;;;15.50;79.90;;;;;;5052162;28;20036;-64
2023/08/31 09:41:11;;;;;;;8.63;2.53;;;15.20;81.10;;;;;;5054531;28;20037;-64
2023/08/31 09:43:39;;;;;;;7.00;3.03;;;15.20;80.80;;;;;;5056355;28;20430;-63
2023/08/31 09:46:07;;;;;;;12.02;3.17;;;15.20;81.10;;;;;;5056246;28;20057;-64
2023/08/31 09:48:40;;;;;;;7.38;2.83;;;15.00;82.20;;;;;;5057012;28;20352;-65
2023/08/31 09:51:08;;;;;;;7.63;2.95;;;15.10;81.80;;;;;;5057192;28;20014;-64
2023/08/31 09:53:37;;;;;;;9.48;3.15;;;15.10;81.70;;;;;;5056705;28;20029;-64
2023/08/31 09:56:13;;;;;;;9.25;3.30;;;15.10;81.20;;;;;;5055845;28;20036;-64
2023/08/31 09:58:41;;;;;;;7.55;2.90;;;15.20;81.40;;;;;;5056837;28;20021;-63
2023/08/31 10:01:08;;;;;;;6.20;2.60;;;15.20;81.40;;;;;;5055874;28;20021;-64
2023/08/31 10:03:37;;;;;;;10.70;3.47;;;15.30;81.00;;;;;;5056648;28;20021;-64
2023/08/31 10:06:06;;;;;;;7.63;3.00;;;15.30;80.90;;;;;;5055640;28;20020;-64
2023/08/31 10:08:35;;;;;;;7.65;2.50;;;15.20;81.30;;;;;;5055570;28;20105;-63
2023/08/31 10:11:05;;;;;;;9.98;3.08;;;15.20;81.70;;;;;;5056940;28;20045;-65
2023/08/31 10:13:39;;;;;;;9.85;2.72;;;15.10;81.70;;;;;;5056227;28;20470;-64
2023/08/31 10:16:07;;;;;;;10.05;3.25;;;15.10;82.00;;;;;;5055355;28;20025;-65
2023/08/31 10:18:38;;;;;;;7.65;2.47;;;15.20;81.70;;;;;;5055494;28;20355;-65
2023/08/31 10:21:06;;;;;;;7.45;2.75;;;15.10;81.80;;;;;;5055212;28;20096;-66
2023/08/31 10:23:35;;;;;;;8.10;2.25;;;15.30;81.60;;;;;;5055481;28;20077;-64
2023/08/31 10:26:04;;;;;;;4.85;2.13;;;15.20;81.70;;;;;;5055088;28;20118;-64
2023/08/31 10:28:41;;;;;;;10.23;3.70;;;14.90;82.50;;;;;;5055609;28;20025;-65
2023/08/31 10:31:16;;;;;;;7.10;2.85;;;14.90;82.50;;;;;;5056354;28;20343;-64
2023/08/31 10:33:45;;;;;;;9.20;3.20;;;14.80;82.90;;;;;;5038731;28;20021;-65
2023/08/31 10:36:20;;;;;;;10.02;3.10;;;15.00;82.60;;;;;;5056041;28;20142;-65
2023/08/31 10:39:12;;;;;;;7.10;4.20;;;15.10;82.20;;;;;;5055129;28;20032;-64
2023/08/31 10:41:40;;;;;;;9.00;2.93;;;15.10;82.00;;;;;;5055110;28;20025;-64
2023/08/31 10:44:27;;;;;;;7.20;2.97;;;15.10;81.90;;;;;;5054940;28;20025;-65
2023/08/31 10:46:55;;;;;;;6.47;2.50;;;15.00;82.10;;;;;;5055027;28;20036;-66
2023/08/31 10:49:23;;;;;;;10.68;3.30;;;15.10;82.00;;;;;;5054501;28;20488;-65
2023/08/31 10:51:55;;;;;;;12.43;3.45;;;15.00;82.30;;;;;;5054728;28;20202;-65
2023/08/31 10:54:31;;;;;;;10.63;3.10;;;14.70;82.90;;;;;;5054709;28;20029;-66
2023/08/31 10:57:06;;;;;;;9.20;2.70;;;14.40;84.10;;;;;;5038155;28;20070;-64
2023/08/31 10:59:53;;;;;;;8.20;2.83;;;14.10;84.80;;;;;;5054676;28;20029;-66
2023/08/31 11:02:42;;;;;;;7.28;2.60;;;14.00;85.30;;;;;;5055769;28;20056;-66
2023/08/31 11:05:12;;;;;;;9.32;2.63;;;14.00;85.50;;;;;;5054703;28;20029;-66
2023/08/31 11:07:41;;;;;;;8.27;2.85;;;14.10;84.70;;;;;;5054691;28;20037;-66
2023/08/31 11:10:11;;;;;;;8.85;2.90;;;14.10;84.70;;;;;;5054316;28;20024;-65
2023/08/31 11:12:41;;;;;;;9.07;4.13;;;14.10;84.50;;;;;;5054492;28;20071;-66
2023/08/31 11:15:12;;;;;;;8.52;3.13;;;13.80;85.50;;;;;;5054399;28;20025;-66
2023/08/31 11:17:40;;;;;;;10.25;3.10;;;13.50;86.50;;;;;;5055435;28;20025;-66
2023/08/31 11:20:09;;;;;;;10.27;3.40;;;13.20;87.40;;;;;;5053848;28;20032;-66
2023/08/31 11:22:44;;;;;;;8.98;3.28;;;13.10;88.00;;;;;;5055493;28;20053;-65
2023/08/31 11:25:14;;;;;;;10.45;3.25;;;13.20;87.90;;;;;;5054168;28;20032;-65
2023/08/31 11:27:41;;;;;;;8.50;3.15;;;13.10;87.90;;;;;;5054120;28;20028;-65
2023/08/31 11:30:20;;;;;;;7.32;3.10;;;13.00;88.30;;;;;;5053903;28;20128;-65
2023/08/31 11:32:52;;;;;;;8.02;2.95;;;12.90;88.60;;;;;;5053935;28;20040;-64
2023/08/31 11:35:21;;;;;;;11.35;3.30;;;12.90;88.60;;;;;;5052720;28;20028;-65
2023/08/31 11:37:53;;;;;;;8.05;2.63;;;12.90;88.50;;;;;;5053538;28;20466;-65
2023/08/31 11:40:20;;;;;;;9.80;3.25;;;12.90;88.40;;;;;;5054775;28;20527;-65
2023/08/31 11:42:52;;;;;;;7.65;2.90;;;13.00;87.90;;;;;;5053631;28;20103;-65
2023/08/31 11:45:22;;;;;;;10.80;3.10;;;13.00;87.60;;;;;;5054964;28;20021;-66
2023/08/31 11:47:50;;;;;;;10.23;2.63;;;13.00;87.70;;;;;;5053555;28;20025;-66
2023/08/31 11:50:19;;;;;;;8.10;3.15;;;12.90;86.50;;;;;;5053705;28;20040;-65
2023/08/31 11:52:47;;;;;;;9.32;3.70;;;12.80;86.90;;;;;;5053752;28;20056;-66
2023/08/31 11:55:20;;;;;;;8.07;3.35;;;12.90;87.50;;;;;;5054623;28;20124;-66
2023/08/31 11:57:56;;;;;;;9.35;3.53;;;13.00;87.00;;;;;;5053415;28;20111;-65
2023/08/31 12:00:24;;;;;;;7.43;2.90;;;13.00;86.70;;;;;;5053781;28;20037;-65
2023/08/31 12:03:04;;;;;;;9.93;2.97;;;13.00;86.50;;;;;;5052920;28;20029;-66
2023/08/31 12:05:47;;;;;;;8.55;2.80;;;13.00;86.60;;;;;;5053747;28;20021;-65
2023/08/31 12:08:18;;;;;;;8.20;2.72;;;12.80;85.80;;;;;;5052877;28;20032;-65
2023/08/31 12:10:47;;;;;;;7.10;2.67;;;12.80;86.20;;;;;;5052975;28;20447;-65
2023/08/31 12:13:15;;;;;;;8.27;2.78;;;12.80;86.30;;;;;;5054396;28;20338;-66
2023/08/31 12:15:42;;;;;;;8.35;3.03;;;12.90;86.20;;;;;;5053340;28;20052;-65
2023/08/31 12:18:15;;;;;;;6.95;3.08;;;12.80;85.90;;;;;;5053247;28;20443;-65
2023/08/31 12:20:51;;;;;;;7.38;3.33;;;12.70;86.90;;;;;;5053804;28;20049;-66
2023/08/31 12:23:22;;;;;;;8.45;3.00;;;12.50;87.40;;;;;;5053380;28;20451;-65
2023/08/31 12:25:52;;;;;;;9.82;3.50;;;12.30;88.40;;;;;;5054256;28;20037;-65
2023/08/31 12:28:21;;;;;;;7.45;3.08;;;12.20;89.00;;;;;;5020585;28;20052;-65
2023/08/31 12:30:51;;;;;;;9.07;3.28;;;12.10;89.30;;;;;;5054128;28;20443;-65
2023/08/31 12:33:20;;;;;;;9.82;2.88;;;12.20;88.70;;;;;;5053135;28;20052;-65
2023/08/31 12:35:48;;;;;;;10.10;3.35;;;12.40;88.20;;;;;;5036434;28;20396;-65
2023/08/31 12:38:16;;;;;;;9.55;3.42;;;12.50;88.10;;;;;;5052894;28;20451;-66
2023/08/31 12:40:43;;;;;;;7.75;2.85;;;12.50;87.90;;;;;;5052807;28;20032;-65
2023/08/31 12:43:12;;;;;;;7.90;2.80;;;12.50;87.40;;;;;;5054066;28;20075;-65
2023/08/31 12:45:41;;;;;;;5.50;2.80;;;12.50;87.30;;;;;;5052885;28;20175;-65
2023/08/31 12:48:09;;;;;;;12.52;3.50;;;12.40;87.10;;;;;;5052952;28;20025;-66
2023/08/31 12:50:36;;;;;;;6.32;2.60;;;12.40;87.50;;;;;;5052605;28;20067;-63
2023/08/31 12:53:04;;;;;;;9.15;3.22;;;12.50;87.30;;;;;;5052931;28;20093;-62
2023/08/31 12:55:31;;;;;;;6.40;3.50;;;12.50;87.30;;;;;;5053208;28;20032;-63
2023/08/31 12:57:59;;;;;;;11.18;3.90;;;12.20;87.90;;;;;;5053738;28;20029;-62